KFAY

Fayetteville Regional Airport

Airport
ICAO code
KFAY
Summary
ICAO Region
NAM
ICAO Territory
Location

Fayetteville, North Carolina,

Elevation
189 ft
Coordinates
34° 59' 28" N , 78° 53' 14" W
KCC
Metar
Observation
KFAY 070853Z 24004KT 10SM CLR 14/13 A3007 RMK AO2 SLP178 T01440133 55000 $
Station
Fayetteville, Fayetteville Regional Airport
Date/Time
2022-10-07 08:53:00
Wind direction
240°
Wind speed
04 kts
Lowest cloud amount
n/a
Temperature
14.4°C
Dew point
13.3°C
Humidity
93%
Weather condition
n/a

Description

Fayetteville Regional Airport, also known as Grannis Field, is a public use airport located 6 km south of the central business district of Fayetteville, in Cumberland County, North Carolina.

Climatology

Humid “subtropical” climate (Köppen climate classification Cfa) - characterized by hot, humid summers and cool winters. Significant amounts of precipitation occur in all seasons in most areas. Winter rainfall (and sometimes snowfall) is associated with large storms that the westerlies steer from west to east. Most summer rainfall occurs during thunderstorms and occasional tropical storms (hurricanes).

Airport map

Aerial View

SKYbrary Partners:

Safety knowledge contributed by: